weather.gov     
National Weather Service

Terminal Aerodrome Forecast
NWS Homepage
This page is being discontinued on March 12, 2014.
The same data is available at this site. Please update your bookmarks.
Thank you, and we apologize for the inconvenience.
Please send an email to SR-SRH.Webmaster@noaa.gov with any concerns.


Current Version
Previous Version:    01  02  03  04  05  06  07  08  09  10  11  12  13  14  15  16  17  18  19  20  21  22  23  24  25  26  27  28  29  30  
   31  32  33  
[Printable]
375
FTUS46 KMFR 231739
TAFRBG
TAF
KRBG 231739Z 2318/2418 00000KT 3SM BR SCT002 BKN050
     FM231900 18003KT P6SM SCT050 BKN100 BKN250
     FM240800 00000KT 1SM BR BKN005 BKN200
     FM241000 00000KT 1/4SM FG VV002=


375
FTUS46 KMFR 231739
TAFRBG
TAF
KRBG 231739Z 2318/2418 00000KT 3SM BR SCT002 BKN050
     FM231900 18003KT P6SM SCT050 BKN100 BKN250
     FM240800 00000KT 1SM BR BKN005 BKN200
     FM241000 00000KT 1/4SM FG VV002=




U.S. Dept. of Commerce
NOAA National Weather Service
1325 East West Highway
Silver Spring, MD 20910
E-mail: w-nws.webmaster@noaa.gov
Page last modified: May 16, 2007
NATIONAL WEATHER SERVICE: for Safety, for Work, for Fun - FOR LIFE